sensor_id;sensor_type;location;lat;lon;timestamp;pressure;altitude;pressure_sealevel;temperature;humidity
9277;BME280;4676;42.678;23.244;2023-02-12T00:00:01;95037.94;;;1.08;49.19
9277;BME280;4676;42.678;23.244;2023-02-12T00:02:27;95037.06;;;1.06;49.38
9277;BME280;4676;42.678;23.244;2023-02-12T00:04:56;95042.94;;;1.08;48.79
9277;BME280;4676;42.678;23.244;2023-02-12T00:07:22;95042.06;;;1.06;48.61
9277;BME280;4676;42.678;23.244;2023-02-12T00:09:49;95042.09;;;1.07;49.35
9277;BME280;4676;42.678;23.244;2023-02-12T00:12:16;95053.72;;;1.07;49.03
9277;BME280;4676;42.678;23.244;2023-02-12T00:14:43;95045.41;;;1.06;49.59
9277;BME280;4676;42.678;23.244;2023-02-12T00:17:09;95039.50;;;0.99;49.88
9277;BME280;4676;42.678;23.244;2023-02-12T00:19:36;95042.78;;;0.95;49.74
9277;BME280;4676;42.678;23.244;2023-02-12T00:22:04;95051.16;;;1.00;49.97
9277;BME280;4676;42.678;23.244;2023-02-12T00:24:31;95050.28;;;0.97;49.59
9277;BME280;4676;42.678;23.244;2023-02-12T00:26:58;95040.31;;;0.97;49.99
9277;BME280;4676;42.678;23.244;2023-02-12T00:29:25;95038.59;;;0.93;50.47
9277;BME280;4676;42.678;23.244;2023-02-12T00:31:51;95045.34;;;0.98;49.94
9277;BME280;4676;42.678;23.244;2023-02-12T00:34:18;95031.19;;;0.97;49.73
9277;BME280;4676;42.678;23.244;2023-02-12T00:36:45;95027.84;;;0.97;50.11
9277;BME280;4676;42.678;23.244;2023-02-12T00:39:13;95027.88;;;0.98;50.11
9277;BME280;4676;42.678;23.244;2023-02-12T00:41:39;95012.81;;;0.92;49.99
9277;BME280;4676;42.678;23.244;2023-02-12T00:44:06;95010.22;;;0.85;49.95
9277;BME280;4676;42.678;23.244;2023-02-12T00:46:33;95003.63;;;0.90;49.99
9277;BME280;4676;42.678;23.244;2023-02-12T00:48:59;95005.34;;;0.95;49.47
9277;BME280;4676;42.678;23.244;2023-02-12T00:51:26;95008.72;;;0.97;49.79
9277;BME280;4676;42.678;23.244;2023-02-12T00:53:53;95000.47;;;1.06;49.73
9277;BME280;4676;42.678;23.244;2023-02-12T00:56:21;94986.31;;;1.04;49.53
9277;BME280;4676;42.678;23.244;2023-02-12T00:58:48;94987.16;;;1.04;49.88
9277;BME280;4676;42.678;23.244;2023-02-12T01:01:15;94966.25;;;0.94;49.75
9277;BME280;4676;42.678;23.244;2023-02-12T01:03:42;94978.81;;;1.02;50.31
9277;BME280;4676;42.678;23.244;2023-02-12T01:06:08;94977.91;;;0.94;49.76
9277;BME280;4676;42.678;23.244;2023-02-12T01:08:35;94985.34;;;0.88;50.01
9277;BME280;4676;42.678;23.244;2023-02-12T01:11:03;94984.59;;;0.98;50.14
9277;BME280;4676;42.678;23.244;2023-02-12T01:13:33;94992.88;;;0.94;49.75
9277;BME280;4676;42.678;23.244;2023-02-12T01:16:01;94998.69;;;0.94;50.54
9277;BME280;4676;42.678;23.244;2023-02-12T01:18:28;94948.50;;;0.69;50.29
9277;BME280;4676;42.678;23.244;2023-02-12T01:20:55;94996.25;;;0.97;50.43
9277;BME280;4676;42.678;23.244;2023-02-12T01:23:23;94994.59;;;0.98;50.44
9277;BME280;4676;42.678;23.244;2023-02-12T01:25:50;94997.88;;;0.95;50.74
9277;BME280;4676;42.678;23.244;2023-02-12T01:28:17;94999.56;;;0.99;51.19
9277;BME280;4676;42.678;23.244;2023-02-12T01:30:45;95000.44;;;1.02;50.38
9277;BME280;4676;42.678;23.244;2023-02-12T01:33:12;95003.81;;;1.05;50.51
9277;BME280;4676;42.678;23.244;2023-02-12T01:35:39;94988.72;;;0.94;50.70
9277;BME280;4676;42.678;23.244;2023-02-12T01:38:05;94987.16;;;1.04;51.02
9277;BME280;4676;42.678;23.244;2023-02-12T01:40:32;94997.91;;;0.98;51.26
9277;BME280;4676;42.678;23.244;2023-02-12T01:43:00;94981.28;;;1.00;51.32
9277;BME280;4676;42.678;23.244;2023-02-12T01:45:47;94972.13;;;0.98;51.34
9277;BME280;4676;42.678;23.244;2023-02-12T01:48:16;94970.44;;;0.97;51.33
9277;BME280;4676;42.678;23.244;2023-02-12T01:50:45;94964.50;;;0.86;51.66
9277;BME280;4676;42.678;23.244;2023-02-12T01:53:13;94950.34;;;0.83;51.62
9277;BME280;4676;42.678;23.244;2023-02-12T01:55:48;94962.06;;;0.90;52.36
9277;BME280;4676;42.678;23.244;2023-02-12T01:58:16;94967.06;;;0.90;52.32
9277;BME280;4676;42.678;23.244;2023-02-12T02:00:43;94972.03;;;0.92;52.20
9277;BME280;4676;42.678;23.244;2023-02-12T02:03:12;94970.44;;;0.97;52.39
9277;BME280;4676;42.678;23.244;2023-02-12T02:05:43;94966.25;;;0.93;51.98
9277;BME280;4676;42.678;23.244;2023-02-12T02:08:11;94966.25;;;0.91;52.14
9277;BME280;4676;42.678;23.244;2023-02-12T02:10:38;94969.53;;;0.92;52.42
9277;BME280;4676;42.678;23.244;2023-02-12T02:13:05;94977.88;;;0.92;52.44
9277;BME280;4676;42.678;23.244;2023-02-12T02:15:55;94973.69;;;0.90;52.90
9277;BME280;4676;42.678;23.244;2023-02-12T02:18:31;94969.53;;;0.87;52.60
9277;BME280;4676;42.678;23.244;2023-02-12T02:21:29;94971.94;;;0.83;52.82
9277;BME280;4676;42.678;23.244;2023-02-12T02:24:25;94969.50;;;0.86;53.04
9277;BME280;4676;42.678;23.244;2023-02-12T02:27:08;94965.34;;;0.86;53.55
9277;BME280;4676;42.678;23.244;2023-02-12T02:32:28;94962.72;;;0.76;54.31
9277;BME280;4676;42.678;23.244;2023-02-12T02:35:00;94958.59;;;0.76;54.08
9277;BME280;4676;42.678;23.244;2023-02-12T02:37:31;94964.41;;;0.78;54.21
9277;BME280;4676;42.678;23.244;2023-02-12T02:40:08;94959.41;;;0.74;54.51
9277;BME280;4676;42.678;23.244;2023-02-12T02:42:40;94953.56;;;0.75;54.59
9277;BME280;4676;42.678;23.244;2023-02-12T02:45:12;94951.09;;;0.78;55.12
9277;BME280;4676;42.678;23.244;2023-02-12T02:47:45;94963.66;;;0.84;55.56
9277;BME280;4676;42.678;23.244;2023-02-12T02:50:15;94960.28;;;0.82;55.45
9277;BME280;4676;42.678;23.244;2023-02-12T02:52:47;94961.13;;;0.82;55.67
9277;BME280;4676;42.678;23.244;2023-02-12T02:55:17;94964.56;;;0.92;55.86
9277;BME280;4676;42.678;23.244;2023-02-12T02:57:49;94962.94;;;0.95;55.89
9277;BME280;4676;42.678;23.244;2023-02-12T03:00:19;94962.16;;;0.98;55.63
9277;BME280;4676;42.678;23.244;2023-02-12T03:02:52;94957.97;;;0.97;55.97
9277;BME280;4676;42.678;23.244;2023-02-12T03:05:23;94958.03;;;1.02;55.96
9277;BME280;4676;42.678;23.244;2023-02-12T03:07:56;94953.84;;;1.00;55.89
9277;BME280;4676;42.678;23.244;2023-02-12T03:10:26;94950.53;;;1.03;55.90
9277;BME280;4676;42.678;23.244;2023-02-12T03:12:58;94963.91;;;1.10;56.15
9277;BME280;4676;42.678;23.244;2023-02-12T03:15:31;94962.19;;;1.04;56.73
9277;BME280;4676;42.678;23.244;2023-02-12T03:18:04;94958.94;;;1.11;56.47
9277;BME280;4676;42.678;23.244;2023-02-12T03:20:35;94953.94;;;1.13;56.86
9277;BME280;4676;42.678;23.244;2023-02-12T03:23:09;94945.63;;;1.11;56.19
9277;BME280;4676;42.678;23.244;2023-02-12T03:25:40;94953.22;;;1.24;56.17
9277;BME280;4676;42.678;23.244;2023-02-12T03:28:14;94944.09;;;1.25;56.16
9277;BME280;4676;42.678;23.244;2023-02-12T03:30:44;94923.19;;;1.14;55.88
9277;BME280;4676;42.678;23.244;2023-02-12T03:33:21;94941.53;;;1.20;56.41
9277;BME280;4676;42.678;23.244;2023-02-12T03:35:56;94935.69;;;1.15;56.67
9277;BME280;4676;42.678;23.244;2023-02-12T03:38:34;94937.34;;;1.16;56.85
9277;BME280;4676;42.678;23.244;2023-02-12T03:41:05;94939.88;;;1.21;57.92
9277;BME280;4676;42.678;23.244;2023-02-12T03:43:45;94939.03;;;1.19;57.37
9277;BME280;4676;42.678;23.244;2023-02-12T03:46:19;94934.00;;;1.14;57.53
9277;BME280;4676;42.678;23.244;2023-02-12T03:48:56;94941.53;;;1.16;57.31
9277;BME280;4676;42.678;23.244;2023-02-12T03:51:29;94935.69;;;1.17;57.41
9277;BME280;4676;42.678;23.244;2023-02-12T03:54:00;94939.06;;;1.23;57.99
9277;BME280;4676;42.678;23.244;2023-02-12T03:56:31;94944.94;;;1.25;57.96
9277;BME280;4676;42.678;23.244;2023-02-12T03:58:58;94946.50;;;1.17;58.05
9277;BME280;4676;42.678;23.244;2023-02-12T04:01:26;94955.72;;;1.23;57.77
9277;BME280;4676;42.678;23.244;2023-02-12T04:03:54;94942.44;;;1.28;58.29
9277;BME280;4676;42.678;23.244;2023-02-12T04:06:24;94942.47;;;1.30;58.68
9277;BME280;4676;42.678;23.244;2023-02-12T04:08:52;94939.97;;;1.30;58.38
9277;BME280;4676;42.678;23.244;2023-02-12T04:11:27;94929.19;;;1.35;58.86
9277;BME280;4676;42.678;23.244;2023-02-12T04:14:07;94940.03;;;1.36;58.45
9277;BME280;4676;42.678;23.244;2023-02-12T04:16:42;94940.88;;;1.39;58.34
9277;BME280;4676;42.678;23.244;2023-02-12T04:19:14;94953.34;;;1.36;58.00
9277;BME280;4676;42.678;23.244;2023-02-12T04:21:53;94955.88;;;1.41;58.29
9277;BME280;4676;42.678;23.244;2023-02-12T04:24:33;94961.69;;;1.41;58.21
9277;BME280;4676;42.678;23.244;2023-02-12T04:27:09;94965.81;;;1.35;58.80
9277;BME280;4676;42.678;23.244;2023-02-12T04:29:42;94960.72;;;1.23;59.14
9277;BME280;4676;42.678;23.244;2023-02-12T04:32:16;94964.03;;;1.23;59.65
9277;BME280;4676;42.678;23.244;2023-02-12T04:34:49;94962.34;;;1.19;59.98
9277;BME280;4676;42.678;23.244;2023-02-12T04:37:20;94961.53;;;1.22;59.10
9277;BME280;4676;42.678;23.244;2023-02-12T04:39:48;94963.00;;;1.03;59.95
9277;BME280;4676;42.678;23.244;2023-02-12T04:42:15;94965.63;;;1.17;59.97
9277;BME280;4676;42.678;23.244;2023-02-12T04:44:42;94966.41;;;1.08;59.99
9277;BME280;4676;42.678;23.244;2023-02-12T04:47:10;94969.84;;;1.19;59.83
9277;BME280;4676;42.678;23.244;2023-02-12T04:49:37;94975.66;;;1.18;59.86
9277;BME280;4676;42.678;23.244;2023-02-12T04:52:05;94975.63;;;1.15;59.67
9277;BME280;4676;42.678;23.244;2023-02-12T04:54:32;94983.13;;;1.20;59.77
9277;BME280;4676;42.678;23.244;2023-02-12T04:56:59;94984.81;;;1.19;59.42
9277;BME280;4676;42.678;23.244;2023-02-12T04:59:26;94991.50;;;1.22;60.05
9277;BME280;4676;42.678;23.244;2023-02-12T05:01:52;94985.66;;;1.21;59.78
9277;BME280;4676;42.678;23.244;2023-02-12T05:04:19;94988.09;;;1.15;60.06
9277;BME280;4676;42.678;23.244;2023-02-12T05:06:46;94987.97;;;1.02;60.23
9277;BME280;4676;42.678;23.244;2023-02-12T05:09:15;94990.47;;;1.03;60.61
9277;BME280;4676;42.678;23.244;2023-02-12T05:11:42;94993.03;;;1.11;59.34
9277;BME280;4676;42.678;23.244;2023-02-12T05:14:10;95002.16;;;1.07;59.23
9277;BME280;4676;42.678;23.244;2023-02-12T05:16:36;94999.72;;;1.13;58.36
9277;BME280;4676;42.678;23.244;2023-02-12T05:19:03;95003.06;;;1.17;58.61
9277;BME280;4676;42.678;23.244;2023-02-12T05:21:30;94992.97;;;1.06;58.76
9277;BME280;4676;42.678;23.244;2023-02-12T05:23:56;95011.31;;;1.08;59.83
9277;BME280;4676;42.678;23.244;2023-02-12T05:26:25;95025.38;;;0.98;59.93
9277;BME280;4676;42.678;23.244;2023-02-12T05:28:51;95026.94;;;0.92;60.20
9277;BME280;4676;42.678;23.244;2023-02-12T05:31:18;95004.19;;;0.68;60.72
9277;BME280;4676;42.678;23.244;2023-02-12T05:33:47;95029.25;;;0.75;61.96
9277;BME280;4676;42.678;23.244;2023-02-12T05:36:15;95035.78;;;0.67;64.27
9277;BME280;4676;42.678;23.244;2023-02-12T05:38:43;95041.47;;;0.56;66.56
9277;BME280;4676;42.678;23.244;2023-02-12T05:41:11;95040.59;;;0.54;67.76
9277;BME280;4676;42.678;23.244;2023-02-12T05:43:40;95047.97;;;0.44;68.97
9277;BME280;4676;42.678;23.244;2023-02-12T05:46:08;95047.84;;;0.37;70.09
9277;BME280;4676;42.678;23.244;2023-02-12T05:48:35;95040.28;;;0.29;71.01
9277;BME280;4676;42.678;23.244;2023-02-12T05:51:03;95043.72;;;0.39;72.50
9277;BME280;4676;42.678;23.244;2023-02-12T05:53:30;95052.97;;;0.46;72.95
9277;BME280;4676;42.678;23.244;2023-02-12T05:56:07;95037.19;;;0.45;73.00
9277;BME280;4676;42.678;23.244;2023-02-12T05:58:34;95052.19;;;0.50;73.70
9277;BME280;4676;42.678;23.244;2023-02-12T06:01:02;95026.25;;;0.37;74.40
9277;BME280;4676;42.678;23.244;2023-02-12T06:03:34;95057.28;;;0.58;76.19
9277;BME280;4676;42.678;23.244;2023-02-12T06:06:00;95053.84;;;0.48;78.40
9277;BME280;4676;42.678;23.244;2023-02-12T06:08:27;95050.50;;;0.47;81.07
9277;BME280;4676;42.678;23.244;2023-02-12T06:10:54;95062.16;;;0.50;83.47
9277;BME280;4676;42.678;23.244;2023-02-12T06:13:24;95018.72;;;0.33;84.99
9277;BME280;4676;42.678;23.244;2023-02-12T06:15:51;95049.66;;;0.45;86.86
9277;BME280;4676;42.678;23.244;2023-02-12T06:18:19;95057.91;;;0.43;88.59
9277;BME280;4676;42.678;23.244;2023-02-12T06:20:45;95051.31;;;0.45;89.50
9277;BME280;4676;42.678;23.244;2023-02-12T06:23:12;95051.41;;;0.54;91.54
9277;BME280;4676;42.678;23.244;2023-02-12T06:25:39;95050.50;;;0.47;94.29
9277;BME280;4676;42.678;23.244;2023-02-12T06:28:06;95050.31;;;0.35;99.90
9277;BME280;4676;42.678;23.244;2023-02-12T06:30:32;95056.16;;;0.36;100.00
9277;BME280;4676;42.678;23.244;2023-02-12T06:32:59;95055.38;;;0.38;100.00
9277;BME280;4676;42.678;23.244;2023-02-12T06:35:27;95048.69;;;0.37;100.00
9277;BME280;4676;42.678;23.244;2023-02-12T06:37:54;95053.75;;;0.42;100.00
9277;BME280;4676;42.678;23.244;2023-02-12T06:40:21;95053.84;;;0.48;100.00
9277;BME280;4676;42.678;23.244;2023-02-12T06:42:48;95054.50;;;0.36;100.00
9277;BME280;4676;42.678;23.244;2023-02-12T06:45:14;95025.03;;;0.10;100.00
9277;BME280;4676;42.678;23.244;2023-02-12T06:47:41;95039.44;;;0.29;100.00
9277;BME280;4676;42.678;23.244;2023-02-12T06:50:08;95046.25;;;0.40;100.00
9277;BME280;4676;42.678;23.244;2023-02-12T06:52:37;95052.13;;;0.44;100.00
9277;BME280;4676;42.678;23.244;2023-02-12T06:55:04;95047.19;;;0.48;100.00
9277;BME280;4676;42.678;23.244;2023-02-12T06:57:30;95048.84;;;0.49;100.00
9277;BME280;4676;42.678;23.244;2023-02-12T06:59:57;95057.28;;;0.56;100.00
9277;BME280;4676;42.678;23.244;2023-02-12T07:02:24;95054.78;;;0.58;100.00
9277;BME280;4676;42.678;23.244;2023-02-12T07:04:51;95054.78;;;0.58;100.00
9277;BME280;4676;42.678;23.244;2023-02-12T07:07:17;95051.63;;;0.69;100.00
9277;BME280;4676;42.678;23.244;2023-02-12T07:09:46;95047.34;;;0.61;100.00
9277;BME280;4676;42.678;23.244;2023-02-12T07:12:12;95054.22;;;0.77;100.00
9277;BME280;4676;42.678;23.244;2023-02-12T07:14:39;95055.81;;;0.72;100.00
9277;BME280;4676;42.678;23.244;2023-02-12T07:17:06;95054.84;;;0.64;100.00
9277;BME280;4676;42.678;23.244;2023-02-12T07:19:34;95043.13;;;0.55;100.00
9277;BME280;4676;42.678;23.244;2023-02-12T07:22:01;95054.13;;;0.69;100.00
9277;BME280;4676;42.678;23.244;2023-02-12T07:24:28;95049.94;;;0.68;100.00
9277;BME280;4676;42.678;23.244;2023-02-12T07:26:57;95056.72;;;0.77;100.00
9277;BME280;4676;42.678;23.244;2023-02-12T07:29:23;95060.84;;;0.76;100.00
9277;BME280;4676;42.678;23.244;2023-02-12T07:31:50;95050.00;;;0.73;100.00
9277;BME280;4676;42.678;23.244;2023-02-12T07:34:17;95044.97;;;0.70;100.00
9277;BME280;4676;42.678;23.244;2023-02-12T07:36:44;95064.13;;;0.72;100.00
9277;BME280;4676;42.678;23.244;2023-02-12T07:39:11;95069.16;;;0.75;100.00
9277;BME280;4676;42.678;23.244;2023-02-12T07:41:38;95060.00;;;0.76;100.00
9277;BME280;4676;42.678;23.244;2023-02-12T07:44:09;95059.97;;;0.74;100.00
9277;BME280;4676;42.678;23.244;2023-02-12T07:46:38;95070.69;;;0.66;100.00
9277;BME280;4676;42.678;23.244;2023-02-12T07:49:06;95082.16;;;0.52;100.00
9277;BME280;4676;42.678;23.244;2023-02-12T07:51:35;95081.34;;;0.53;100.00
9277;BME280;4676;42.678;23.244;2023-02-12T07:54:03;95072.88;;;0.41;100.00
9277;BME280;4676;42.678;23.244;2023-02-12T07:56:31;95076.25;;;0.45;100.00
9277;BME280;4676;42.678;23.244;2023-02-12T07:59:01;95073.75;;;0.45;100.00
9277;BME280;4676;42.678;23.244;2023-02-12T08:01:30;95079.63;;;0.48;100.00
9277;BME280;4676;42.678;23.244;2023-02-12T08:03:58;95084.56;;;0.47;100.00
9277;BME280;4676;42.678;23.244;2023-02-12T08:06:28;95083.66;;;0.40;100.00
9277;BME280;4676;42.678;23.244;2023-02-12T08:09:00;95070.97;;;0.27;100.00
9277;BME280;4676;42.678;23.244;2023-02-12T08:11:27;95082.59;;;0.26;100.00
9277;BME280;4676;42.678;23.244;2023-02-12T08:13:56;95081.75;;;0.24;100.00
9277;BME280;4676;42.678;23.244;2023-02-12T08:16:24;95086.78;;;0.29;100.00
9277;BME280;4676;42.678;23.244;2023-02-12T08:18:53;95083.50;;;0.30;100.00
9277;BME280;4676;42.678;23.244;2023-02-12T08:21:22;95075.88;;;0.21;100.00
9277;BME280;4676;42.678;23.244;2023-02-12T08:23:49;95082.69;;;0.31;100.00
9277;BME280;4676;42.678;23.244;2023-02-12T08:26:18;95091.84;;;0.33;100.00
9277;BME280;4676;42.678;23.244;2023-02-12T08:28:46;95087.72;;;0.34;100.00
9277;BME280;4676;42.678;23.244;2023-02-12T08:31:16;95097.63;;;0.32;100.00
9277;BME280;4676;42.678;23.244;2023-02-12T08:33:44;95090.03;;;0.25;100.00
9277;BME280;4676;42.678;23.244;2023-02-12T08:36:14;95099.97;;;0.22;100.00
9277;BME280;4676;42.678;23.244;2023-02-12T08:38:42;95101.63;;;0.20;100.00
9277;BME280;4676;42.678;23.244;2023-02-12T08:41:10;95104.34;;;0.35;100.00
9277;BME280;4676;42.678;23.244;2023-02-12T08:43:38;95105.31;;;0.46;100.00
9277;BME280;4676;42.678;23.244;2023-02-12T08:46:07;95108.78;;;0.53;100.00
9277;BME280;4676;42.678;23.244;2023-02-12T08:48:34;95122.19;;;0.62;100.00
9277;BME280;4676;42.678;23.244;2023-02-12T08:51:06;95082.72;;;0.35;100.00
9277;BME280;4676;42.678;23.244;2023-02-12T08:53:35;95093.81;;;0.53;100.00
9277;BME280;4676;42.678;23.244;2023-02-12T08:56:02;95120.59;;;0.67;100.00
9277;BME280;4676;42.678;23.244;2023-02-12T08:58:29;95124.91;;;0.79;100.00
9277;BME280;4676;42.678;23.244;2023-02-12T09:00:56;95129.75;;;0.68;100.00
9277;BME280;4676;42.678;23.244;2023-02-12T09:03:23;95126.44;;;0.69;100.00
9277;BME280;4676;42.678;23.244;2023-02-12T09:05:50;95127.22;;;0.65;100.00
9277;BME280;4676;42.678;23.244;2023-02-12T09:08:17;95114.56;;;0.53;100.00
9277;BME280;4676;42.678;23.244;2023-02-12T09:10:45;95134.47;;;0.50;100.00
9277;BME280;4676;42.678;23.244;2023-02-12T09:13:13;95138.63;;;0.49;100.00
9277;BME280;4676;42.678;23.244;2023-02-12T09:15:40;95144.50;;;0.53;100.00
9277;BME280;4676;42.678;23.244;2023-02-12T09:18:08;95141.09;;;0.48;100.00
9277;BME280;4676;42.678;23.244;2023-02-12T09:20:37;95138.03;;;0.66;100.00
9277;BME280;4676;42.678;23.244;2023-02-12T09:23:05;95142.31;;;0.74;100.00
9277;BME280;4676;42.678;23.244;2023-02-12T09:25:32;95148.31;;;0.88;100.00
9277;BME280;4676;42.678;23.244;2023-02-12T09:28:01;95150.13;;;0.97;100.00
9277;BME280;4676;42.678;23.244;2023-02-12T09:30:28;95156.00;;;1.00;100.00
9277;BME280;4676;42.678;23.244;2023-02-12T09:32:55;95147.75;;;1.08;100.00
9277;BME280;4676;42.678;23.244;2023-02-12T09:35:22;95145.34;;;1.14;100.00
9277;BME280;4676;42.678;23.244;2023-02-12T09:37:49;95141.97;;;1.09;100.00
9277;BME280;4676;42.678;23.244;2023-02-12T09:40:20;95147.00;;;1.12;100.00
9277;BME280;4676;42.678;23.244;2023-02-12T09:43:11;95144.53;;;1.15;100.00
9277;BME280;4676;42.678;23.244;2023-02-12T09:45:45;95147.88;;;1.17;100.00
9277;BME280;4676;42.678;23.244;2023-02-12T09:48:27;95152.06;;;1.19;100.00
9277;BME280;4676;42.678;23.244;2023-02-12T09:50:56;95147.22;;;1.30;100.00
9277;BME280;4676;42.678;23.244;2023-02-12T09:53:27;95158.00;;;1.29;100.00
9277;BME280;4676;42.678;23.244;2023-02-12T09:55:54;95167.94;;;1.24;100.00
9277;BME280;4676;42.678;23.244;2023-02-12T09:58:29;95169.59;;;1.24;100.00
9277;BME280;4676;42.678;23.244;2023-02-12T10:00:59;95176.91;;;1.10;100.00
9277;BME280;4676;42.678;23.244;2023-02-12T10:03:29;95169.38;;;1.07;100.00
9277;BME280;4676;42.678;23.244;2023-02-12T10:05:59;95167.72;;;1.08;100.00
9277;BME280;4676;42.678;23.244;2023-02-12T10:08:38;95172.72;;;1.09;100.00
9277;BME280;4676;42.678;23.244;2023-02-12T10:11:21;95169.31;;;1.02;100.00
9277;BME280;4676;42.678;23.244;2023-02-12T10:13:57;95166.75;;;0.95;100.00
9277;BME280;4676;42.678;23.244;2023-02-12T10:16:36;95167.31;;;0.79;100.00
9277;BME280;4676;42.678;23.244;2023-02-12T10:19:20;95169.16;;;0.92;100.00
9277;BME280;4676;42.678;23.244;2023-02-12T10:21:57;95163.41;;;0.94;100.00
9277;BME280;4676;42.678;23.244;2023-02-12T10:27:28;95152.00;;;1.15;100.00
9277;BME280;4676;42.678;23.244;2023-02-12T10:30:03;95151.16;;;1.14;100.00
9277;BME280;4676;42.678;23.244;2023-02-12T10:32:39;95153.06;;;1.32;100.00
9277;BME280;4676;42.678;23.244;2023-02-12T10:35:12;95143.22;;;1.45;100.00
9277;BME280;4676;42.678;23.244;2023-02-12T10:37:43;95149.09;;;1.47;100.00
9277;BME280;4676;42.678;23.244;2023-02-12T10:40:16;95147.59;;;1.63;100.00
9277;BME280;4676;42.678;23.244;2023-02-12T10:42:46;95151.84;;;1.73;100.00
9277;BME280;4676;42.678;23.244;2023-02-12T10:45:17;95156.94;;;1.79;100.00
9277;BME280;4676;42.678;23.244;2023-02-12T10:47:45;95137.53;;;1.57;100.00
9277;BME280;4676;42.678;23.244;2023-02-12T10:50:24;95159.53;;;1.90;100.00
9277;BME280;4676;42.678;23.244;2023-02-12T10:53:00;95157.16;;;2.00;100.00
9277;BME280;4676;42.678;23.244;2023-02-12T10:55:30;95159.47;;;1.84;100.00
9277;BME280;4676;42.678;23.244;2023-02-12T10:57:58;95162.13;;;1.99;100.00
9277;BME280;4676;42.678;23.244;2023-02-12T11:00:29;95160.41;;;1.95;100.00
9277;BME280;4676;42.678;23.244;2023-02-12T11:03:05;95156.41;;;2.15;100.00
9277;BME280;4676;42.678;23.244;2023-02-12T11:05:44;95153.22;;;2.30;100.00
9277;BME280;4676;42.678;23.244;2023-02-12T11:08:27;95156.69;;;2.45;100.00
9277;BME280;4676;42.678;23.244;2023-02-12T11:10:55;95155.81;;;2.40;100.00
9277;BME280;4676;42.678;23.244;2023-02-12T11:13:28;95160.78;;;2.36;100.00
9277;BME280;4676;42.678;23.244;2023-02-12T11:15:57;95147.38;;;2.25;100.00
9277;BME280;4676;42.678;23.244;2023-02-12T11:18:26;95153.94;;;2.17;100.00
9277;BME280;4676;42.678;23.244;2023-02-12T11:20:57;95156.44;;;2.14;100.00
9277;BME280;4676;42.678;23.244;2023-02-12T11:23:27;95157.41;;;2.31;100.00
9277;BME280;4676;42.678;23.244;2023-02-12T11:25:57;95152.44;;;2.37;100.00
9277;BME280;4676;42.678;23.244;2023-02-12T11:28:24;95158.34;;;2.43;100.00
9277;BME280;4676;42.678;23.244;2023-02-12T11:30:54;95137.47;;;2.40;100.00
9277;BME280;4676;42.678;23.244;2023-02-12T11:33:31;95160.22;;;2.72;100.00
9277;BME280;4676;42.678;23.244;2023-02-12T11:36:01;95155.31;;;2.84;100.00
9277;BME280;4676;42.678;23.244;2023-02-12T11:38:32;95160.41;;;3.03;98.73
9277;BME280;4676;42.678;23.244;2023-02-12T11:41:06;95161.31;;;3.15;97.98
9277;BME280;4676;42.678;23.244;2023-02-12T11:43:35;95160.34;;;2.91;96.63
9277;BME280;4676;42.678;23.244;2023-02-12T11:46:04;95162.91;;;3.00;97.48
9277;BME280;4676;42.678;23.244;2023-02-12T11:48:37;95157.00;;;2.89;97.78
9277;BME280;4676;42.678;23.244;2023-02-12T11:51:08;95154.41;;;2.74;98.00
9277;BME280;4676;42.678;23.244;2023-02-12T11:53:39;95155.28;;;2.81;98.06
9277;BME280;4676;42.678;23.244;2023-02-12T11:56:09;95150.19;;;2.72;98.05
9277;BME280;4676;42.678;23.244;2023-02-12T11:58:37;95152.00;;;2.89;97.25
9277;BME280;4676;42.678;23.244;2023-02-12T12:01:10;95157.03;;;2.94;98.34
9277;BME280;4676;42.678;23.244;2023-02-12T12:03:43;95151.19;;;2.93;97.17
9277;BME280;4676;42.678;23.244;2023-02-12T12:06:26;95148.69;;;2.93;96.64
9277;BME280;4676;42.678;23.244;2023-02-12T12:09:00;95152.97;;;3.13;98.36
9277;BME280;4676;42.678;23.244;2023-02-12T12:11:33;95158.78;;;3.07;96.75
9277;BME280;4676;42.678;23.244;2023-02-12T12:14:06;95166.28;;;3.07;95.98
9277;BME280;4676;42.678;23.244;2023-02-12T12:16:38;95167.16;;;3.14;94.97
9277;BME280;4676;42.678;23.244;2023-02-12T12:19:33;95174.75;;;3.26;94.38
9277;BME280;4676;42.678;23.244;2023-02-12T12:22:37;95166.41;;;3.30;94.01
9277;BME280;4676;42.678;23.244;2023-02-12T12:25:14;95156.34;;;3.21;93.84
9277;BME280;4676;42.678;23.244;2023-02-12T12:27:53;95121.25;;;3.18;93.39
9277;BME280;4676;42.678;23.244;2023-02-12T12:30:40;95163.91;;;3.31;90.62
9277;BME280;4676;42.678;23.244;2023-02-12T12:33:16;95168.91;;;3.30;90.49
9277;BME280;4676;42.678;23.244;2023-02-12T12:35:51;95169.78;;;3.39;91.52
9277;BME280;4676;42.678;23.244;2023-02-12T12:38:36;95173.94;;;3.33;91.56
9277;BME280;4676;42.678;23.244;2023-02-12T12:41:12;95165.56;;;3.29;92.67
9277;BME280;4676;42.678;23.244;2023-02-12T12:43:51;95144.59;;;3.14;92.73
9277;BME280;4676;42.678;23.244;2023-02-12T12:46:44;95175.44;;;3.03;93.86
9277;BME280;4676;42.678;23.244;2023-02-12T12:49:22;95180.47;;;3.07;94.69
9277;BME280;4676;42.678;23.244;2023-02-12T12:52:11;95186.38;;;3.16;94.44
9277;BME280;4676;42.678;23.244;2023-02-12T12:54:54;95185.53;;;3.20;93.71
9277;BME280;4676;42.678;23.244;2023-02-12T12:57:36;95182.16;;;3.11;93.62
9277;BME280;4676;42.678;23.244;2023-02-12T13:00:18;95192.19;;;3.12;94.25
9277;BME280;4676;42.678;23.244;2023-02-12T13:03:13;95185.53;;;3.10;93.61
9277;BME280;4676;42.678;23.244;2023-02-12T13:05:57;95185.56;;;3.22;94.16
9277;BME280;4676;42.678;23.244;2023-02-12T13:08:42;95185.53;;;3.16;94.03
9277;BME280;4676;42.678;23.244;2023-02-12T13:11:22;95202.22;;;3.15;94.65
9277;BME280;4676;42.678;23.244;2023-02-12T13:14:00;95196.34;;;3.09;96.32
9277;BME280;4676;42.678;23.244;2023-02-12T13:16:38;95198.88;;;3.13;96.40
9277;BME280;4676;42.678;23.244;2023-02-12T13:19:14;95208.91;;;3.18;96.55
9277;BME280;4676;42.678;23.244;2023-02-12T13:21:49;95203.88;;;3.09;96.49
9277;BME280;4676;42.678;23.244;2023-02-12T13:24:26;95200.53;;;3.10;96.44
9277;BME280;4676;42.678;23.244;2023-02-12T13:26:56;95187.13;;;3.03;96.23
9277;BME280;4676;42.678;23.244;2023-02-12T13:29:26;95213.94;;;3.18;96.93
9277;BME280;4676;42.678;23.244;2023-02-12T13:31:58;95207.25;;;3.18;96.74
9277;BME280;4676;42.678;23.244;2023-02-12T13:34:28;95208.13;;;3.28;96.53
9277;BME280;4676;42.678;23.244;2023-02-12T13:36:59;95205.66;;;3.29;96.44
9277;BME280;4676;42.678;23.244;2023-02-12T13:39:31;95208.19;;;3.35;95.21
9277;BME280;4676;42.678;23.244;2023-02-12T13:42:11;95211.56;;;3.42;94.84